sim
Sign-in with your pilot id or email,
or register
Callsign
Passwort

Schedule Details

Flight Number: RYR5142 (2)
Departure: Karlsruhe/Baden-Baden Airport (EDSB) at 08:05
Arrival: Thessaloniki International Airport (LGTS) at 10:40
Route: Ryanair Passenger Schedule. Enter filed route here before submitting Pirep.

Weather Information
Getting current METAR information for EDSB 211450Z 21006KT CAVOK 15/06 Q1028
Getting current METAR information for LGTS 211450Z 34007KT CAVOK 16/00 Q1022 NOSIG

Schedule Frequency

Route Map